createdAt,value
2023-05-16T00:01:59.158Z,58.52
2023-05-16T00:04:27.405Z,58.32
2023-05-16T00:06:55.046Z,58.41
2023-05-16T00:09:22.494Z,58.41
2023-05-16T00:11:51.017Z,58.55
2023-05-16T00:14:19.878Z,58.54
2023-05-16T00:16:47.975Z,58.53
2023-05-16T00:19:15.965Z,58.62
2023-05-16T00:21:44.842Z,58.75
2023-05-16T00:24:12.353Z,58.79
2023-05-16T00:26:40.227Z,59.05
2023-05-16T00:29:07.625Z,59.30
2023-05-16T00:31:35.137Z,59.29
2023-05-16T00:34:03.044Z,58.99
2023-05-16T00:36:31.778Z,59.17
2023-05-16T00:38:59.296Z,59.35
2023-05-16T00:41:27.856Z,59.29
2023-05-16T00:43:55.406Z,59.24
2023-05-16T00:46:22.934Z,59.40
2023-05-16T00:48:52.061Z,59.64
2023-05-16T00:51:19.600Z,59.68
2023-05-16T00:53:47.117Z,59.53
2023-05-16T00:56:14.953Z,59.58
2023-05-16T00:58:42.496Z,59.77
2023-05-16T01:01:10.540Z,60.21
2023-05-16T01:03:39.417Z,60.44
2023-05-16T01:06:07.330Z,60.56
2023-05-16T01:08:34.875Z,60.58
2023-05-16T01:11:11.196Z,60.47
2023-05-16T01:13:59.553Z,60.30
2023-05-16T01:16:39.360Z,60.41
2023-05-16T01:19:25.706Z,60.23
2023-05-16T01:22:04.579Z,60.38
2023-05-16T01:24:52.109Z,60.45
2023-05-16T01:27:19.990Z,60.51
2023-05-16T01:29:47.412Z,60.84
2023-05-16T01:32:14.854Z,60.43
2023-05-16T01:34:42.722Z,60.39
2023-05-16T01:37:19.844Z,60.53
2023-05-16T01:39:53.822Z,60.59
2023-05-16T01:42:24.942Z,60.92
2023-05-16T01:44:52.722Z,60.70
2023-05-16T01:47:23.368Z,60.21
2023-05-16T01:50:18.984Z,60.30
2023-05-16T01:52:46.587Z,60.15
2023-05-16T01:55:44.532Z,60.09
2023-05-16T01:58:14.038Z,60.43
2023-05-16T02:00:41.840Z,60.53
2023-05-16T02:03:09.777Z,60.68
2023-05-16T02:05:37.292Z,60.44
2023-05-16T02:08:05.369Z,60.59
2023-05-16T02:10:33.104Z,60.56
2023-05-16T02:13:00.719Z,60.91
2023-05-16T02:15:28.797Z,60.79
2023-05-16T02:17:56.755Z,60.96
2023-05-16T02:20:24.222Z,60.66
2023-05-16T02:22:51.686Z,60.10
2023-05-16T02:25:19.458Z,60.16
2023-05-16T02:27:46.907Z,60.01
2023-05-16T02:30:14.502Z,59.87
2023-05-16T02:32:45.090Z,59.77
2023-05-16T02:35:12.907Z,59.88
2023-05-16T02:37:41.075Z,60.06
2023-05-16T02:40:09.485Z,60.07
2023-05-16T02:42:37.352Z,60.04
2023-05-16T02:45:05.353Z,60.17
2023-05-16T02:47:33.083Z,59.95
2023-05-16T02:50:00.773Z,60.92
2023-05-16T02:52:28.270Z,60.45
2023-05-16T02:55:09.806Z,60.30
2023-05-16T02:57:43.771Z,59.92
2023-05-16T03:00:15.182Z,59.88
2023-05-16T03:02:45.025Z,60.10
2023-05-16T03:05:13.317Z,59.91
2023-05-16T03:07:41.347Z,60.13
2023-05-16T03:10:09.143Z,60.84
2023-05-16T03:12:37.018Z,60.44
2023-05-16T03:15:04.997Z,59.71
2023-05-16T03:17:32.537Z,59.72
2023-05-16T03:20:00.288Z,59.90
2023-05-16T03:22:28.179Z,59.55
2023-05-16T03:24:55.598Z,59.77
2023-05-16T03:27:23.399Z,59.54
2023-05-16T03:29:50.822Z,59.39
2023-05-16T03:32:18.299Z,59.25
2023-05-16T03:34:46.919Z,59.58
2023-05-16T03:37:16.098Z,59.47
2023-05-16T03:39:43.620Z,59.25
2023-05-16T03:42:11.465Z,59.38
2023-05-16T03:44:38.967Z,59.54
2023-05-16T03:47:06.473Z,59.75
2023-05-16T03:49:34.221Z,59.56
2023-05-16T03:52:02.051Z,59.48
2023-05-16T03:54:29.552Z,59.58
2023-05-16T03:56:57.325Z,59.43
2023-05-16T03:59:24.769Z,59.58
2023-05-16T04:01:52.175Z,59.34
2023-05-16T04:04:19.967Z,59.32
2023-05-16T04:06:47.404Z,59.35
2023-05-16T04:09:14.808Z,59.28
2023-05-16T04:11:43.409Z,59.45
2023-05-16T04:14:10.950Z,59.76
2023-05-16T04:16:38.620Z,59.73
2023-05-16T04:19:06.430Z,59.49
2023-05-16T04:21:33.942Z,59.38
2023-05-16T04:24:01.752Z,59.15
2023-05-16T04:26:30.382Z,59.39
2023-05-16T04:28:59.600Z,59.63
2023-05-16T04:31:28.075Z,59.57
2023-05-16T04:33:56.188Z,59.73
2023-05-16T04:36:23.653Z,59.40
2023-05-16T04:38:52.567Z,59.80
2023-05-16T04:41:20.285Z,60.04
2023-05-16T04:43:47.763Z,59.85
2023-05-16T04:46:18.059Z,59.78
2023-05-16T04:48:46.298Z,60.30
2023-05-16T04:51:13.706Z,60.35
2023-05-16T04:53:41.175Z,60.02
2023-05-16T04:56:08.986Z,59.76
2023-05-16T04:58:37.402Z,60.75
2023-05-16T05:01:04.913Z,60.48
2023-05-16T05:03:32.718Z,59.83
2023-05-16T05:06:00.169Z,59.84
2023-05-16T05:08:27.615Z,59.82
2023-05-16T05:10:58.386Z,59.67
2023-05-16T05:13:25.845Z,59.59
2023-05-16T05:15:53.277Z,59.52
2023-05-16T05:18:21.024Z,59.37
2023-05-16T05:20:48.532Z,59.84
2023-05-16T05:23:15.972Z,59.05
2023-05-16T05:25:43.723Z,58.94
2023-05-16T05:28:11.123Z,58.68
2023-05-16T05:30:39.240Z,58.74
2023-05-16T05:33:08.013Z,58.73
2023-05-16T05:35:35.575Z,59.04
2023-05-16T05:38:03.001Z,58.86
2023-05-16T05:40:31.073Z,59.29
2023-05-16T05:42:58.506Z,59.21
2023-05-16T05:45:26.127Z,59.22
2023-05-16T05:47:54.243Z,59.20
2023-05-16T05:50:22.014Z,59.52
2023-05-16T05:52:49.484Z,60.06
2023-05-16T05:55:17.219Z,59.71
2023-05-16T05:57:44.669Z,59.38
2023-05-16T06:00:12.486Z,59.61
2023-05-16T06:02:40.703Z,59.68
2023-05-16T06:05:08.846Z,59.19
2023-05-16T06:07:36.270Z,59.19
2023-05-16T06:10:05.576Z,59.35
2023-05-16T06:12:33.261Z,59.37
2023-05-16T06:15:00.783Z,59.27
2023-05-16T06:17:28.531Z,59.01
2023-05-16T06:19:56.001Z,59.18
2023-05-16T06:22:23.596Z,59.78
2023-05-16T06:24:51.291Z,59.18
2023-05-16T06:27:18.730Z,59.74
2023-05-16T06:29:46.300Z,59.66
2023-05-16T06:32:14.008Z,59.91
2023-05-16T06:34:41.558Z,60.20
2023-05-16T06:37:09.413Z,59.93
2023-05-16T06:39:37.156Z,60.21
2023-05-16T06:42:05.020Z,59.55
2023-05-16T06:44:32.752Z,59.40
2023-05-16T06:47:00.643Z,59.42
2023-05-16T06:49:28.220Z,59.92
2023-05-16T06:51:55.700Z,60.01
2023-05-16T06:54:23.427Z,60.68
2023-05-16T06:56:50.987Z,62.67
2023-05-16T06:59:18.488Z,63.05
2023-05-16T07:01:46.666Z,64.17
2023-05-16T07:04:14.477Z,63.39
2023-05-16T07:06:42.216Z,63.95
2023-05-16T07:09:09.966Z,63.14
2023-05-16T07:11:37.580Z,65.03
2023-05-16T07:14:05.085Z,65.02
2023-05-16T07:16:33.100Z,66.41
2023-05-16T07:19:00.743Z,67.59
2023-05-16T07:21:29.318Z,69.72
2023-05-16T07:23:57.680Z,72.04
2023-05-16T07:26:25.170Z,72.46
2023-05-16T07:28:52.997Z,70.76
2023-05-16T07:31:20.962Z,71.96
2023-05-16T07:33:49.276Z,70.60
2023-05-16T07:36:17.664Z,71.39
2023-05-16T07:38:45.860Z,73.45
2023-05-16T07:41:13.307Z,73.39
2023-05-16T07:43:41.200Z,76.01
2023-05-16T07:46:09.019Z,74.32
2023-05-16T07:48:36.882Z,75.39
2023-05-16T07:51:04.329Z,75.58
2023-05-16T07:53:32.122Z,76.36
2023-05-16T07:56:00.234Z,77.78
2023-05-16T07:58:27.955Z,76.96
2023-05-16T08:00:56.023Z,75.14
2023-05-16T08:03:23.861Z,74.07
2023-05-16T08:05:54.877Z,76.54
2023-05-16T08:08:22.443Z,75.37
2023-05-16T08:10:50.232Z,76.15
2023-05-16T08:13:17.886Z,75.14
2023-05-16T08:15:45.586Z,75.78
2023-05-16T08:18:17.052Z,74.68
2023-05-16T08:20:45.054Z,75.21
2023-05-16T08:23:14.688Z,75.90
2023-05-16T08:25:42.760Z,79.56
2023-05-16T08:28:10.261Z,80.60
2023-05-16T08:30:39.357Z,80.73
2023-05-16T08:33:08.093Z,79.43
2023-05-16T08:35:35.745Z,78.98
2023-05-16T08:38:03.542Z,82.45
2023-05-16T08:40:31.568Z,82.23
2023-05-16T08:42:59.197Z,81.28
2023-05-16T08:45:27.678Z,81.51
2023-05-16T08:47:57.058Z,82.86
2023-05-16T08:50:25.533Z,81.06
2023-05-16T08:52:54.147Z,80.42
2023-05-16T08:55:24.491Z,81.09
2023-05-16T08:57:52.104Z,84.12
2023-05-16T09:00:20.630Z,82.37
2023-05-16T09:02:48.690Z,87.40
2023-05-16T09:05:17.674Z,83.78
2023-05-16T09:07:46.256Z,85.82
2023-05-16T09:10:14.133Z,85.00
2023-05-16T09:12:42.083Z,84.96
2023-05-16T09:15:11.155Z,82.59
2023-05-16T09:17:42.888Z,83.80
2023-05-16T09:20:18.541Z,85.29
2023-05-16T09:22:55.985Z,84.35
2023-05-16T09:25:30.160Z,84.45
2023-05-16T09:28:01.914Z,85.88
2023-05-16T09:30:32.536Z,86.55
2023-05-16T09:33:00.506Z,85.36
2023-05-16T09:37:58.665Z,88.40
2023-05-16T09:40:26.227Z,88.69
2023-05-16T09:43:04.920Z,84.93
2023-05-16T09:45:34.220Z,84.38
2023-05-16T09:48:05.498Z,86.55
2023-05-16T09:50:34.781Z,84.17
2023-05-16T09:53:03.060Z,83.99
2023-05-16T09:55:31.374Z,83.81
2023-05-16T09:57:59.291Z,83.97
2023-05-16T10:00:31.753Z,84.89
2023-05-16T10:03:04.076Z,84.44
2023-05-16T10:05:32.906Z,84.58
2023-05-16T10:08:02.846Z,84.99
2023-05-16T10:10:30.898Z,85.44
2023-05-16T10:13:01.592Z,86.14
2023-05-16T10:15:30.357Z,85.73
2023-05-16T10:18:02.193Z,84.62
2023-05-16T10:20:30.037Z,83.61
2023-05-16T10:22:58.359Z,82.75
2023-05-16T10:25:42.114Z,83.94
2023-05-16T10:28:10.160Z,85.10
2023-05-16T10:30:41.152Z,83.22
2023-05-16T10:33:09.791Z,83.82
2023-05-16T10:35:38.820Z,84.07
2023-05-16T10:38:08.336Z,84.07
2023-05-16T10:40:36.794Z,85.46
2023-05-16T10:43:06.494Z,84.74
2023-05-16T10:45:34.134Z,85.85
2023-05-16T10:48:06.988Z,84.32
2023-05-16T10:50:43.027Z,83.76
2023-05-16T10:53:22.620Z,87.56
2023-05-16T10:55:52.159Z,87.47
2023-05-16T10:58:24.552Z,87.18
2023-05-16T11:01:24.849Z,88.83
2023-05-16T11:04:04.197Z,89.20
2023-05-16T11:06:45.452Z,86.03
2023-05-16T11:09:14.118Z,89.91
2023-05-16T11:11:54.128Z,89.97
2023-05-16T11:14:29.278Z,87.09
2023-05-16T11:17:02.909Z,90.68
2023-05-16T11:19:52.625Z,87.08
2023-05-16T11:22:21.666Z,90.27
2023-05-16T11:24:56.291Z,92.43
2023-05-16T11:27:32.353Z,91.17
2023-05-16T11:30:21.792Z,90.72
2023-05-16T11:32:50.724Z,88.06
2023-05-16T11:35:18.689Z,89.79
2023-05-16T11:37:47.130Z,88.53
2023-05-16T11:40:15.709Z,86.54
2023-05-16T11:42:51.456Z,86.79
2023-05-16T11:45:22.386Z,90.32
2023-05-16T11:47:50.222Z,93.86
2023-05-16T11:50:19.645Z,93.20
2023-05-16T11:52:50.319Z,88.17
2023-05-16T11:55:32.371Z,87.57
2023-05-16T11:58:08.891Z,88.16
2023-05-16T12:00:36.538Z,89.86
2023-05-16T12:03:05.927Z,90.16
2023-05-16T12:05:35.414Z,91.79
2023-05-16T12:08:04.947Z,89.22
2023-05-16T12:10:35.889Z,87.09
2023-05-16T12:13:04.062Z,84.90
2023-05-16T12:15:31.789Z,84.16
2023-05-16T12:17:59.760Z,86.31
2023-05-16T12:20:27.940Z,83.91
2023-05-16T12:22:57.853Z,86.31
2023-05-16T12:25:30.232Z,84.50
2023-05-16T12:28:03.076Z,83.98
2023-05-16T12:30:32.430Z,84.40
2023-05-16T12:33:04.201Z,84.03
2023-05-16T12:35:34.615Z,84.95
2023-05-16T12:38:07.781Z,82.66
2023-05-16T12:40:39.684Z,83.67
2023-05-16T12:43:19.990Z,83.68
2023-05-16T12:45:55.189Z,81.88
2023-05-16T12:48:34.582Z,81.88
2023-05-16T12:51:15.881Z,85.41
2023-05-16T12:53:57.747Z,84.11
2023-05-16T12:56:29.381Z,81.46
2023-05-16T12:58:57.550Z,80.84
2023-05-16T13:01:25.212Z,80.51
2023-05-16T13:03:53.788Z,84.64
2023-05-16T13:06:21.661Z,84.23
2023-05-16T13:08:49.169Z,82.93
2023-05-16T13:11:16.635Z,84.71
2023-05-16T13:13:44.451Z,84.34
2023-05-16T13:16:11.994Z,84.16
2023-05-16T13:18:39.701Z,86.00
2023-05-16T13:21:07.557Z,83.96
2023-05-16T13:23:35.195Z,85.22
2023-05-16T13:26:02.873Z,89.35
2023-05-16T13:28:32.753Z,87.98
2023-05-16T13:31:00.947Z,87.29
2023-05-16T13:33:28.553Z,89.46
2023-05-16T13:35:56.669Z,88.18
2023-05-16T13:38:24.171Z,89.59
2023-05-16T13:40:51.605Z,88.62
2023-05-16T13:43:19.617Z,88.66
2023-05-16T13:45:47.306Z,85.95
2023-05-16T13:48:14.952Z,87.40
2023-05-16T13:50:44.322Z,85.54
2023-05-16T13:53:12.085Z,84.66
2023-05-16T13:55:40.149Z,82.47
2023-05-16T13:58:08.057Z,82.81
2023-05-16T14:00:44.674Z,87.51
2023-05-16T14:03:13.992Z,84.28
2023-05-16T14:05:41.689Z,81.35
2023-05-16T14:08:09.876Z,84.51
2023-05-16T14:10:37.641Z,80.88
2023-05-16T14:13:05.133Z,79.73
2023-05-16T14:15:32.601Z,80.97
2023-05-16T14:18:00.620Z,79.51
2023-05-16T14:20:28.165Z,78.28
2023-05-16T14:22:55.670Z,78.34
2023-05-16T14:25:23.519Z,77.62
2023-05-16T14:27:51.243Z,77.20
2023-05-16T14:30:18.841Z,78.08
2023-05-16T14:32:46.634Z,78.44
2023-05-16T14:35:14.705Z,76.06
2023-05-16T14:37:42.198Z,76.12
2023-05-16T14:40:10.409Z,74.72
2023-05-16T14:42:38.174Z,75.76
2023-05-16T14:45:06.549Z,76.92
2023-05-16T14:47:34.423Z,74.31
2023-05-16T14:50:01.999Z,74.49
2023-05-16T14:52:29.582Z,73.27
2023-05-16T14:54:57.361Z,73.43
2023-05-16T14:57:25.009Z,75.35
2023-05-16T14:59:52.539Z,76.31
2023-05-16T15:02:21.070Z,75.48
2023-05-16T15:04:48.594Z,75.45
2023-05-16T15:07:16.165Z,75.13
2023-05-16T15:09:44.176Z,74.91
2023-05-16T15:12:11.662Z,75.35
2023-05-16T15:14:39.239Z,77.60
2023-05-16T15:17:08.863Z,78.08
2023-05-16T15:19:36.873Z,78.87
2023-05-16T15:22:07.819Z,78.57
2023-05-16T15:24:35.834Z,80.50
2023-05-16T15:27:04.893Z,80.02
2023-05-16T15:29:32.549Z,80.02
2023-05-16T15:32:04.459Z,81.70
2023-05-16T15:34:34.721Z,81.56
2023-05-16T15:37:02.527Z,82.52
2023-05-16T15:39:30.122Z,83.00
2023-05-16T15:42:09.712Z,82.99
2023-05-16T15:44:38.784Z,84.64
2023-05-16T15:47:06.746Z,85.05
2023-05-16T15:49:34.185Z,87.19
2023-05-16T15:52:02.032Z,85.98
2023-05-16T15:54:29.716Z,87.12
2023-05-16T15:56:57.435Z,85.34
2023-05-16T15:59:25.359Z,87.78
2023-05-16T16:01:52.965Z,84.67
2023-05-16T16:04:23.416Z,90.70
2023-05-16T16:06:51.332Z,87.18
2023-05-16T16:09:18.831Z,88.73
2023-05-16T16:11:46.593Z,87.94
2023-05-16T16:14:14.197Z,90.54
2023-05-16T16:16:41.928Z,89.51
2023-05-16T16:19:09.834Z,86.59
2023-05-16T16:21:37.405Z,87.76
2023-05-16T16:24:05.382Z,84.79
2023-05-16T16:26:33.153Z,85.07
2023-05-16T16:29:00.681Z,84.21
2023-05-16T16:31:28.367Z,85.33
2023-05-16T16:33:56.279Z,85.17
2023-05-16T16:36:23.860Z,84.93
2023-05-16T16:38:51.361Z,83.99
2023-05-16T16:41:19.249Z,87.83
2023-05-16T16:43:46.944Z,88.13
2023-05-16T16:46:14.605Z,88.18
2023-05-16T16:48:42.644Z,87.12
2023-05-16T16:51:10.175Z,88.56
2023-05-16T16:53:38.085Z,87.42
2023-05-16T16:56:06.737Z,88.70
2023-05-16T16:58:34.573Z,86.74
2023-05-16T17:01:02.299Z,89.30
2023-05-16T17:03:30.133Z,87.04
2023-05-16T17:05:57.904Z,86.27
2023-05-16T17:08:25.497Z,85.81
2023-05-16T17:10:53.414Z,89.63
2023-05-16T17:13:20.888Z,89.78
2023-05-16T17:15:48.369Z,92.28
2023-05-16T17:18:16.286Z,89.61
2023-05-16T17:20:43.755Z,88.71
2023-05-16T17:23:11.521Z,91.67
2023-05-16T17:25:39.334Z,89.80
2023-05-16T17:28:07.895Z,87.27
2023-05-16T17:30:35.368Z,90.34
2023-05-16T17:33:04.441Z,90.91
2023-05-16T17:35:32.954Z,89.50
2023-05-16T17:38:00.543Z,87.21
2023-05-16T17:40:28.432Z,88.10
2023-05-16T17:42:56.428Z,86.53
2023-05-16T17:45:25.191Z,87.00
2023-05-16T17:47:53.368Z,89.00
2023-05-16T17:50:21.928Z,85.89
2023-05-16T17:52:50.458Z,86.25
2023-05-16T17:55:18.536Z,86.64
2023-05-16T17:57:46.769Z,86.34
2023-05-16T18:00:15.223Z,86.38
2023-05-16T18:02:44.682Z,83.89
2023-05-16T18:05:12.285Z,84.23
2023-05-16T18:07:40.978Z,83.19
2023-05-16T18:10:09.119Z,84.36
2023-05-16T18:12:38.726Z,83.86
2023-05-16T18:15:10.651Z,83.12
2023-05-16T18:17:38.436Z,82.53
2023-05-16T18:20:10.725Z,83.05
2023-05-16T18:22:39.169Z,84.49
2023-05-16T18:25:08.438Z,85.00
2023-05-16T18:27:36.894Z,85.18
2023-05-16T18:30:06.467Z,86.34
2023-05-16T18:32:34.941Z,85.59
2023-05-16T18:35:02.518Z,83.75
2023-05-16T18:37:31.096Z,86.28
2023-05-16T18:39:58.658Z,87.24
2023-05-16T18:42:27.351Z,83.28
2023-05-16T18:44:55.310Z,84.90
2023-05-16T18:47:23.288Z,85.70
2023-05-16T18:49:51.168Z,85.78
2023-05-16T18:52:18.992Z,82.94
2023-05-16T18:54:46.686Z,85.75
2023-05-16T18:57:14.177Z,83.32
2023-05-16T18:59:42.188Z,83.49
2023-05-16T19:02:09.992Z,86.38
2023-05-16T19:04:37.851Z,84.24
2023-05-16T19:07:07.861Z,86.85
2023-05-16T19:09:36.874Z,87.94
2023-05-16T19:12:05.052Z,84.37
2023-05-16T19:14:33.096Z,87.30
2023-05-16T19:17:00.683Z,90.64
2023-05-16T19:19:29.836Z,88.53
2023-05-16T19:21:58.332Z,87.99
2023-05-16T19:24:26.384Z,84.67
2023-05-16T19:26:53.898Z,83.60
2023-05-16T19:29:22.992Z,84.21
2023-05-16T19:31:50.902Z,84.64
2023-05-16T19:34:21.223Z,86.83
2023-05-16T19:36:49.076Z,86.86
2023-05-16T19:39:16.530Z,83.09
2023-05-16T19:41:44.356Z,82.86
2023-05-16T19:44:12.185Z,82.54
2023-05-16T19:46:39.878Z,81.37
2023-05-16T19:49:07.462Z,82.04
2023-05-16T19:51:42.011Z,83.94
2023-05-16T19:54:10.219Z,83.87
2023-05-16T19:56:38.030Z,84.47
2023-05-16T19:59:05.894Z,83.08
2023-05-16T20:01:33.415Z,81.10
2023-05-16T20:04:01.980Z,81.76
2023-05-16T20:06:29.773Z,82.03
2023-05-16T20:08:57.326Z,79.45
2023-05-16T20:11:25.087Z,78.41
2023-05-16T20:13:52.644Z,78.21
2023-05-16T20:16:20.731Z,78.29
2023-05-16T20:18:48.622Z,78.18
2023-05-16T20:21:16.330Z,79.44
2023-05-16T20:23:43.937Z,78.92
2023-05-16T20:26:14.851Z,79.83
2023-05-16T20:28:42.516Z,77.97
2023-05-16T20:31:10.030Z,77.78
2023-05-16T20:33:38.050Z,77.82
2023-05-16T20:36:05.633Z,77.79
2023-05-16T20:38:33.156Z,77.60
2023-05-16T20:41:00.930Z,78.69
2023-05-16T20:43:28.357Z,77.86
2023-05-16T20:45:55.845Z,78.71
2023-05-16T20:48:23.623Z,78.81
2023-05-16T20:50:51.470Z,80.06
2023-05-16T20:53:18.955Z,78.99
2023-05-16T20:55:46.880Z,76.90
2023-05-16T20:58:15.726Z,78.43
2023-05-16T21:00:43.211Z,76.62
2023-05-16T21:03:12.548Z,77.95
2023-05-16T21:05:40.212Z,76.47
2023-05-16T21:08:08.103Z,75.19
2023-05-16T21:10:35.872Z,76.36
2023-05-16T21:13:03.875Z,77.17
2023-05-16T21:15:31.462Z,75.41
2023-05-16T21:17:59.440Z,74.89
2023-05-16T21:20:30.071Z,75.08
2023-05-16T21:22:57.572Z,75.00
2023-05-16T21:25:25.359Z,74.59
2023-05-16T21:27:53.024Z,73.77
2023-05-16T21:30:20.640Z,73.05
2023-05-16T21:32:48.473Z,74.05
2023-05-16T21:35:16.145Z,73.08
2023-05-16T21:37:43.698Z,73.66
2023-05-16T21:40:14.726Z,73.73
2023-05-16T21:42:42.384Z,74.32
2023-05-16T21:45:15.809Z,74.55
2023-05-16T21:47:43.987Z,74.12
2023-05-16T21:50:12.191Z,73.72
2023-05-16T21:52:40.521Z,72.29
2023-05-16T21:55:08.827Z,72.05
2023-05-16T21:57:36.398Z,71.95
2023-05-16T22:00:06.914Z,71.21
2023-05-16T22:02:38.404Z,71.22
2023-05-16T22:05:06.693Z,70.84
2023-05-16T22:07:34.289Z,70.17
2023-05-16T22:10:02.867Z,70.90
2023-05-16T22:12:30.707Z,70.92
2023-05-16T22:14:58.154Z,70.90
2023-05-16T22:17:25.742Z,70.68
2023-05-16T22:19:53.598Z,70.31
2023-05-16T22:22:21.088Z,71.07
2023-05-16T22:24:48.667Z,71.22
2023-05-16T22:27:16.436Z,71.59
2023-05-16T22:29:43.913Z,71.30
2023-05-16T22:32:11.718Z,70.76
2023-05-16T22:34:42.483Z,70.57
2023-05-16T22:37:10.490Z,70.86
2023-05-16T22:39:37.953Z,71.31
2023-05-16T22:42:06.545Z,71.80
2023-05-16T22:44:33.984Z,70.92
2023-05-16T22:47:01.459Z,71.43
2023-05-16T22:49:29.274Z,71.21
2023-05-16T22:51:56.715Z,70.92
2023-05-16T22:54:24.151Z,70.41
2023-05-16T22:56:51.915Z,71.27
2023-05-16T22:59:19.412Z,70.31
2023-05-16T23:01:46.904Z,70.96
2023-05-16T23:04:14.765Z,70.72
2023-05-16T23:06:42.285Z,71.80
2023-05-16T23:09:09.724Z,71.70
2023-05-16T23:11:37.620Z,71.70
2023-05-16T23:14:05.061Z,71.72
2023-05-16T23:16:32.497Z,71.50
2023-05-16T23:19:00.499Z,71.17
2023-05-16T23:21:28.112Z,70.68
2023-05-16T23:23:55.671Z,70.11
2023-05-16T23:26:23.567Z,69.99
2023-05-16T23:28:51.024Z,69.67
2023-05-16T23:31:18.509Z,70.40
2023-05-16T23:33:46.310Z,69.89
2023-05-16T23:36:13.812Z,69.62
2023-05-16T23:38:41.277Z,69.42
2023-05-16T23:41:08.993Z,68.99
2023-05-16T23:43:36.514Z,68.82
2023-05-16T23:46:04.004Z,68.78
2023-05-16T23:48:31.836Z,68.89
2023-05-16T23:50:59.321Z,69.34
2023-05-16T23:53:29.159Z,68.98
2023-05-16T23:55:56.962Z,68.78
2023-05-16T23:58:24.604Z,68.60
